createdAt,value
2022-10-25T00:00:58.364Z,10.20
2022-10-25T00:03:25.395Z,10.20
2022-10-25T00:05:52.364Z,10.20
2022-10-25T00:08:19.321Z,10.20
2022-10-25T00:10:46.326Z,10.20
2022-10-25T00:13:13.306Z,10.20
2022-10-25T00:15:40.276Z,10.20
2022-10-25T00:18:07.242Z,10.10
2022-10-25T00:20:36.897Z,10.10
2022-10-25T00:23:03.855Z,10.10
2022-10-25T00:25:30.827Z,10.20
2022-10-25T00:27:57.777Z,10.10
2022-10-25T00:30:24.951Z,10.10
2022-10-25T00:32:52.909Z,10.10
2022-10-25T00:35:20.096Z,10.10
2022-10-25T00:37:47.170Z,10.10
2022-10-25T00:40:14.257Z,10.10
2022-10-25T00:42:41.248Z,10.10
2022-10-25T00:45:22.137Z,10.10
2022-10-25T00:47:57.911Z,10.10
2022-10-25T00:50:48.212Z,10.10
2022-10-25T00:53:20.417Z,10.10
2022-10-25T00:55:52.189Z,10.10
2022-10-25T00:58:24.236Z,10.10
2022-10-25T01:00:51.259Z,10.00
2022-10-25T01:03:20.928Z,10.10
2022-10-25T01:05:48.960Z,10.00
2022-10-25T01:08:17.677Z,10.10
2022-10-25T01:10:44.665Z,10.10
2022-10-25T01:13:11.881Z,10.10
2022-10-25T01:15:52.028Z,10.10
2022-10-25T01:22:35.886Z,10.10
2022-10-25T01:25:30.846Z,10.10
2022-10-25T01:28:06.733Z,10.10
2022-10-25T01:31:11.945Z,10.10
2022-10-25T01:33:59.751Z,10.10
2022-10-25T01:36:51.569Z,10.10
2022-10-25T01:39:21.249Z,10.10
2022-10-25T01:42:17.192Z,10.10
2022-10-25T01:45:09.109Z,10.10
2022-10-25T01:47:38.674Z,10.10
2022-10-25T01:50:11.106Z,10.10
2022-10-25T01:52:38.076Z,10.10
2022-10-25T01:55:09.733Z,10.20
2022-10-25T01:57:54.068Z,10.20
2022-10-25T02:00:23.578Z,10.20
2022-10-25T02:02:59.367Z,10.20
2022-10-25T02:05:27.891Z,10.30
2022-10-25T02:08:17.817Z,10.30
2022-10-25T02:10:53.748Z,10.30
2022-10-25T02:13:38.888Z,10.30
2022-10-25T02:16:19.158Z,10.30
2022-10-25T02:18:51.397Z,10.30
2022-10-25T02:21:19.116Z,10.20
2022-10-25T02:23:48.399Z,10.20
2022-10-25T02:26:16.682Z,10.20
2022-10-25T02:28:44.441Z,10.20
2022-10-25T02:31:16.540Z,10.20
2022-10-25T02:33:47.843Z,10.20
2022-10-25T02:36:20.783Z,10.20
2022-10-25T02:38:49.280Z,10.30
2022-10-25T02:41:16.840Z,10.30
2022-10-25T02:43:44.329Z,10.30
2022-10-25T02:46:14.284Z,10.40
2022-10-25T02:48:42.359Z,10.40
2022-10-25T02:51:11.346Z,10.40
2022-10-25T02:53:39.066Z,10.50
2022-10-25T02:56:07.729Z,10.50
2022-10-25T02:58:36.893Z,10.50
2022-10-25T03:01:05.307Z,10.50
2022-10-25T03:03:33.010Z,10.40
2022-10-25T03:06:00.001Z,10.50
2022-10-25T03:10:55.665Z,10.50
2022-10-25T03:13:22.629Z,10.50
2022-10-25T03:15:49.941Z,10.50
2022-10-25T03:18:16.905Z,10.50
2022-10-25T03:20:44.306Z,10.50
2022-10-25T03:23:11.981Z,10.50
2022-10-25T03:25:39.245Z,10.50
2022-10-25T03:28:06.220Z,10.50
2022-10-25T03:30:33.502Z,10.50
2022-10-25T03:33:00.524Z,10.50
2022-10-25T03:35:27.788Z,10.50
2022-10-25T03:37:54.997Z,10.50
2022-10-25T03:40:22.146Z,10.50
2022-10-25T03:42:49.051Z,10.50
2022-10-25T03:45:16.051Z,10.50
2022-10-25T03:47:43.201Z,10.50
2022-10-25T03:50:10.596Z,10.50
2022-10-25T03:52:37.777Z,10.40
2022-10-25T03:55:05.552Z,10.50
2022-10-25T03:57:32.481Z,10.40
2022-10-25T03:59:59.758Z,10.40
2022-10-25T04:02:27.930Z,10.40
2022-10-25T04:04:54.981Z,10.40
2022-10-25T04:07:21.885Z,10.40
2022-10-25T04:09:48.740Z,10.50
2022-10-25T04:12:15.807Z,10.50
2022-10-25T04:14:43.269Z,10.60
2022-10-25T04:17:10.258Z,10.60
2022-10-25T04:19:37.170Z,10.60
2022-10-25T04:22:04.145Z,10.60
2022-10-25T04:24:31.104Z,10.70
2022-10-25T04:26:58.065Z,10.70
2022-10-25T04:29:24.995Z,10.70
2022-10-25T04:31:51.966Z,10.70
2022-10-25T04:34:19.054Z,10.70
2022-10-25T04:36:46.036Z,10.70
2022-10-25T04:39:12.967Z,10.70
2022-10-25T04:41:39.921Z,10.70
2022-10-25T04:44:06.927Z,10.70
2022-10-25T04:46:33.978Z,10.70
2022-10-25T04:49:00.860Z,10.70
2022-10-25T04:51:27.781Z,10.70
2022-10-25T04:53:55.441Z,10.70
2022-10-25T04:56:23.306Z,10.70
2022-10-25T04:58:50.314Z,10.60
2022-10-25T05:01:19.309Z,10.60
2022-10-25T05:03:46.763Z,10.60
2022-10-25T05:06:19.320Z,10.60
2022-10-25T05:08:50.791Z,10.60
2022-10-25T05:11:21.161Z,10.60
2022-10-25T05:13:48.525Z,10.60
2022-10-25T05:16:22.176Z,10.60
2022-10-25T05:18:50.590Z,10.60
2022-10-25T05:21:18.754Z,10.50
2022-10-25T05:23:46.605Z,10.50
2022-10-25T05:26:16.469Z,10.50
2022-10-25T05:28:44.109Z,10.50
2022-10-25T05:31:20.652Z,10.50
2022-10-25T05:33:53.415Z,10.40
2022-10-25T05:36:21.153Z,10.40
2022-10-25T05:38:48.431Z,10.40
2022-10-25T05:41:17.218Z,10.40
2022-10-25T05:43:45.088Z,10.40
2022-10-25T05:46:15.280Z,10.40
2022-10-25T05:48:48.176Z,10.40
2022-10-25T05:51:32.851Z,10.40
2022-10-25T05:54:12.949Z,10.40
2022-10-25T05:56:40.723Z,10.50
2022-10-25T05:59:09.903Z,10.40
2022-10-25T06:01:39.647Z,10.40
2022-10-25T06:04:07.052Z,10.40
2022-10-25T06:06:34.844Z,10.50
2022-10-25T06:09:02.537Z,10.50
2022-10-25T06:11:30.060Z,10.40
2022-10-25T06:13:57.150Z,10.40
2022-10-25T06:16:24.536Z,10.40
2022-10-25T06:18:52.398Z,10.40
2022-10-25T06:21:22.113Z,10.40
2022-10-25T06:23:49.752Z,10.40
2022-10-25T06:26:22.841Z,10.40
2022-10-25T06:28:53.592Z,10.40
2022-10-25T06:31:21.107Z,10.40
2022-10-25T06:33:48.356Z,10.40
2022-10-25T06:36:21.823Z,10.50
2022-10-25T06:38:50.020Z,10.40
2022-10-25T06:41:19.775Z,10.50
2022-10-25T06:43:46.844Z,10.50
2022-10-25T06:46:25.604Z,10.70
2022-10-25T06:48:54.079Z,10.50
2022-10-25T06:51:22.104Z,10.50
2022-10-25T06:53:57.883Z,10.50
2022-10-25T06:56:26.243Z,10.50
2022-10-25T06:58:53.477Z,10.60
2022-10-25T07:01:22.410Z,10.60
2022-10-25T07:03:50.940Z,10.60
2022-10-25T07:06:22.183Z,10.60
2022-10-25T07:08:58.828Z,10.70
2022-10-25T07:11:27.123Z,10.70
2022-10-25T07:13:55.092Z,10.70
2022-10-25T07:16:22.343Z,10.80
2022-10-25T07:18:49.461Z,10.80
2022-10-25T07:21:21.551Z,10.80
2022-10-25T07:23:50.298Z,10.90
2022-10-25T07:26:20.554Z,11.00
2022-10-25T07:28:50.120Z,11.00
2022-10-25T07:31:23.288Z,11.10
2022-10-25T07:33:51.899Z,11.30
2022-10-25T07:36:19.242Z,11.40
2022-10-25T07:38:46.715Z,11.50
2022-10-25T07:41:13.768Z,11.60
2022-10-25T07:43:40.862Z,11.70
2022-10-25T07:46:08.064Z,11.70
2022-10-25T07:48:35.454Z,11.80
2022-10-25T07:51:08.023Z,12.00
2022-10-25T07:53:35.134Z,12.10
2022-10-25T07:56:02.115Z,12.20
2022-10-25T07:58:29.473Z,12.40
2022-10-25T08:01:05.228Z,12.50
2022-10-25T08:03:33.003Z,12.60
2022-10-25T08:06:00.806Z,12.70
2022-10-25T08:08:28.560Z,12.90
2022-10-25T08:10:56.038Z,13.00
2022-10-25T08:13:23.115Z,13.10
2022-10-25T08:15:54.656Z,13.20
2022-10-25T08:18:22.971Z,13.30
2022-10-25T08:21:01.777Z,13.40
2022-10-25T08:23:31.590Z,13.60
2022-10-25T08:25:59.353Z,13.70
2022-10-25T08:28:26.414Z,13.70
2022-10-25T08:30:55.432Z,13.90
2022-10-25T08:33:22.996Z,14.00
2022-10-25T08:35:50.078Z,14.20
2022-10-25T08:38:17.124Z,14.40
2022-10-25T08:40:52.996Z,14.60
2022-10-25T08:43:45.120Z,14.80
2022-10-25T08:46:29.697Z,14.90
2022-10-25T08:49:16.267Z,15.00
2022-10-25T08:51:47.341Z,15.20
2022-10-25T08:54:26.511Z,15.30
2022-10-25T08:57:15.079Z,15.40
2022-10-25T08:59:45.357Z,15.50
2022-10-25T09:02:46.016Z,15.60
2022-10-25T09:05:50.444Z,15.80
2022-10-25T09:08:39.191Z,15.90
2022-10-25T09:11:53.893Z,16.10
2022-10-25T09:14:51.601Z,16.20
2022-10-25T09:17:25.351Z,16.20
2022-10-25T09:19:54.980Z,16.30
2022-10-25T09:22:28.098Z,16.40
2022-10-25T09:25:03.112Z,16.40
2022-10-25T09:27:46.638Z,16.50
2022-10-25T09:30:13.884Z,16.50
2022-10-25T09:32:43.012Z,16.60
2022-10-25T09:35:20.798Z,16.70
2022-10-25T09:38:01.984Z,16.60
2022-10-25T09:40:56.773Z,16.60
2022-10-25T09:43:33.983Z,16.70
2022-10-25T09:46:07.028Z,16.70
2022-10-25T09:48:50.804Z,16.80
2022-10-25T09:51:32.042Z,16.80
2022-10-25T09:54:02.223Z,16.70
2022-10-25T09:56:29.429Z,16.60
2022-10-25T09:58:58.014Z,16.50
2022-10-25T10:01:29.465Z,16.50
2022-10-25T10:04:21.148Z,16.40
2022-10-25T10:06:50.827Z,16.50
2022-10-25T10:09:18.317Z,16.60
2022-10-25T10:11:47.758Z,16.60
2022-10-25T10:14:39.480Z,16.80
2022-10-25T10:17:12.169Z,16.90
2022-10-25T10:19:40.529Z,17.00
2022-10-25T10:22:15.337Z,17.10
2022-10-25T10:24:44.572Z,17.10
2022-10-25T10:27:26.517Z,17.20
2022-10-25T10:30:00.813Z,17.20
2022-10-25T10:41:31.845Z,17.30
2022-10-25T10:44:13.490Z,17.20
2022-10-25T10:50:36.155Z,17.30
2022-10-25T10:53:06.110Z,17.40
2022-10-25T10:55:38.125Z,17.50
2022-10-25T10:58:05.014Z,17.50
2022-10-25T11:04:53.778Z,17.50
2022-10-25T11:07:26.823Z,17.50
2022-10-25T11:09:53.726Z,17.60
2022-10-25T11:12:24.806Z,17.70
2022-10-25T11:14:51.957Z,17.80
2022-10-25T11:17:32.328Z,17.90
2022-10-25T11:20:30.766Z,17.90
2022-10-25T11:23:22.075Z,18.00
2022-10-25T11:25:58.223Z,18.00
2022-10-25T11:28:42.238Z,18.10
2022-10-25T11:32:18.143Z,18.20
2022-10-25T11:34:54.059Z,18.10
2022-10-25T11:37:23.377Z,17.90
2022-10-25T11:40:14.837Z,17.90
2022-10-25T11:43:22.517Z,17.90
2022-10-25T11:45:59.391Z,18.00
2022-10-25T11:48:29.351Z,18.00
2022-10-25T11:51:31.723Z,18.10
2022-10-25T11:54:20.563Z,18.20
2022-10-25T11:57:05.581Z,18.30
2022-10-25T12:00:03.567Z,18.50
2022-10-25T12:02:34.284Z,18.50
2022-10-25T12:05:17.825Z,18.60
2022-10-25T12:08:08.872Z,18.70
2022-10-25T12:11:18.027Z,18.50
2022-10-25T12:13:50.816Z,18.60
2022-10-25T12:16:21.031Z,18.60
2022-10-25T12:19:13.590Z,18.70
2022-10-25T12:21:51.076Z,18.70
2022-10-25T12:24:22.413Z,18.60
2022-10-25T12:26:53.124Z,18.70
2022-10-25T12:29:26.522Z,18.80
2022-10-25T12:31:58.269Z,18.90
2022-10-25T12:34:43.022Z,19.00
2022-10-25T12:37:36.036Z,19.10
2022-10-25T12:40:04.824Z,19.20
2022-10-25T12:43:16.609Z,19.20
2022-10-25T12:46:10.755Z,19.20
2022-10-25T12:48:43.458Z,19.30
2022-10-25T12:51:29.267Z,19.30
2022-10-25T12:53:58.935Z,19.40
2022-10-25T12:56:37.471Z,19.40
2022-10-25T12:59:19.329Z,19.60
2022-10-25T13:01:52.434Z,19.70
2022-10-25T13:04:43.766Z,19.70
2022-10-25T13:07:12.446Z,19.70
2022-10-25T13:09:39.850Z,19.80
2022-10-25T13:12:16.804Z,19.80
2022-10-25T13:14:56.077Z,19.90
2022-10-25T13:17:22.885Z,19.80
2022-10-25T13:23:59.606Z,19.60
2022-10-25T13:26:30.961Z,19.50
2022-10-25T13:29:00.220Z,19.20
2022-10-25T13:31:34.871Z,19.00
2022-10-25T13:34:13.954Z,18.90
2022-10-25T13:36:56.461Z,18.80
2022-10-25T13:39:29.272Z,18.60
2022-10-25T13:42:16.375Z,18.40
2022-10-25T13:44:53.547Z,18.40
2022-10-25T13:47:37.050Z,18.40
2022-10-25T13:50:29.065Z,18.40
2022-10-25T13:53:27.331Z,18.30
2022-10-25T13:56:07.113Z,18.00
2022-10-25T14:03:03.061Z,17.90
2022-10-25T14:05:55.090Z,17.80
2022-10-25T14:08:59.457Z,17.80
2022-10-25T14:11:32.492Z,17.80
2022-10-25T14:14:05.401Z,17.70
2022-10-25T14:21:05.593Z,17.50
2022-10-25T14:23:34.759Z,17.50
2022-10-25T14:26:03.107Z,17.40
2022-10-25T14:28:32.610Z,17.40
2022-10-25T14:31:04.801Z,17.40
2022-10-25T14:33:36.746Z,17.40
2022-10-25T14:36:06.396Z,17.30
2022-10-25T14:39:40.465Z,17.30
2022-10-25T14:42:17.153Z,17.30
2022-10-25T14:44:47.306Z,17.20
2022-10-25T14:47:33.895Z,17.10
2022-10-25T14:50:02.096Z,17.10
2022-10-25T14:52:31.481Z,17.00
2022-10-25T14:55:03.329Z,16.90
2022-10-25T14:57:31.473Z,16.80
2022-10-25T15:00:01.893Z,16.70
2022-10-25T15:02:39.878Z,16.70
2022-10-25T15:05:07.482Z,16.60
2022-10-25T15:07:41.401Z,16.50
2022-10-25T15:10:28.822Z,16.40
2022-10-25T15:12:56.239Z,16.40
2022-10-25T15:15:36.473Z,16.30
2022-10-25T15:18:05.185Z,16.20
2022-10-25T15:20:34.594Z,16.10
2022-10-25T15:23:14.641Z,16.00
2022-10-25T15:25:41.684Z,15.90
2022-10-25T15:28:14.409Z,15.80
2022-10-25T15:30:45.055Z,15.70
2022-10-25T15:33:21.742Z,15.60
2022-10-25T15:35:58.117Z,15.50
2022-10-25T15:39:10.421Z,15.40
2022-10-25T15:41:40.086Z,15.40
2022-10-25T15:44:07.197Z,15.20
2022-10-25T15:46:35.047Z,15.20
2022-10-25T15:49:06.726Z,15.10
2022-10-25T15:51:36.076Z,15.00
2022-10-25T15:54:03.194Z,14.90
2022-10-25T15:56:30.610Z,14.80
2022-10-25T15:59:00.371Z,14.70
2022-10-25T16:01:27.515Z,14.60
2022-10-25T16:03:54.538Z,14.50
2022-10-25T16:06:21.511Z,11.40
2022-10-25T16:08:48.452Z,14.40
2022-10-25T16:11:18.801Z,14.30
2022-10-25T16:13:48.118Z,14.30
2022-10-25T16:16:40.381Z,14.20
2022-10-25T16:19:16.054Z,14.10
2022-10-25T16:21:43.882Z,14.00
2022-10-25T16:24:11.683Z,13.80
2022-10-25T16:26:44.812Z,13.70
2022-10-25T16:29:20.790Z,13.70
2022-10-25T16:31:47.773Z,13.60
2022-10-25T16:34:19.501Z,13.50
2022-10-25T16:36:48.097Z,13.40
2022-10-25T16:39:15.561Z,13.30
2022-10-25T16:41:47.014Z,13.30
2022-10-25T16:44:16.731Z,13.20
2022-10-25T16:46:44.412Z,13.10
2022-10-25T16:49:12.066Z,13.10
2022-10-25T16:51:40.024Z,13.00
2022-10-25T16:54:07.358Z,13.00
2022-10-25T16:56:34.446Z,12.90
2022-10-25T16:59:01.452Z,12.90
2022-10-25T17:01:34.437Z,12.80
2022-10-25T17:08:27.575Z,12.70
2022-10-25T17:10:54.538Z,12.60
2022-10-25T17:13:21.541Z,12.60
2022-10-25T17:15:48.581Z,12.60
2022-10-25T17:18:20.869Z,12.60
2022-10-25T17:20:50.067Z,12.50
2022-10-25T17:23:17.013Z,12.50
2022-10-25T17:25:59.212Z,12.40
2022-10-25T17:32:50.568Z,12.40
2022-10-25T17:35:19.561Z,12.40
2022-10-25T17:37:47.202Z,12.30
2022-10-25T17:40:14.545Z,12.30
2022-10-25T17:43:07.764Z,12.30
2022-10-25T17:45:34.906Z,12.20
2022-10-25T17:48:02.745Z,12.20
2022-10-25T17:50:31.133Z,12.20
2022-10-25T17:53:02.269Z,12.20
2022-10-25T17:55:33.096Z,12.20
2022-10-25T17:59:04.405Z,12.10
2022-10-25T18:06:04.724Z,12.00
2022-10-25T18:08:31.646Z,12.00
2022-10-25T18:10:58.984Z,11.90
2022-10-25T18:13:28.931Z,11.90
2022-10-25T18:16:01.257Z,11.80
2022-10-25T18:18:28.261Z,11.90
2022-10-25T18:20:55.214Z,11.90
2022-10-25T18:23:26.086Z,11.80
2022-10-25T18:25:53.467Z,11.80
2022-10-25T18:28:20.509Z,11.70
2022-10-25T18:30:47.474Z,11.70
2022-10-25T18:33:15.128Z,11.60
2022-10-25T18:35:42.237Z,11.60
2022-10-25T18:38:09.257Z,11.50
2022-10-25T18:40:37.767Z,11.50
2022-10-25T18:43:04.737Z,11.50
2022-10-25T18:45:35.178Z,11.40
2022-10-25T18:48:02.139Z,11.40
2022-10-25T18:50:29.076Z,11.40
2022-10-25T18:52:56.056Z,11.40
2022-10-25T18:55:26.743Z,11.40
2022-10-25T18:57:54.876Z,11.30
2022-10-25T19:00:26.343Z,11.40
2022-10-25T19:02:57.317Z,11.30
2022-10-25T19:05:28.220Z,11.30
2022-10-25T19:07:56.198Z,11.30
2022-10-25T19:11:28.727Z,11.30
2022-10-25T19:13:56.598Z,11.30
2022-10-25T19:16:24.053Z,11.30
2022-10-25T19:18:51.144Z,11.30
2022-10-25T19:21:18.918Z,11.20
2022-10-25T19:27:47.716Z,11.20
2022-10-25T19:30:15.080Z,11.10
2022-10-25T19:32:42.178Z,11.10
2022-10-25T19:35:09.469Z,11.10
2022-10-25T19:37:39.712Z,11.10
2022-10-25T19:44:25.136Z,11.00
2022-10-25T19:46:52.588Z,11.00
2022-10-25T19:49:19.611Z,11.00
2022-10-25T19:51:47.158Z,11.00
2022-10-25T19:54:14.468Z,11.00
2022-10-25T19:56:41.436Z,11.00
2022-10-25T19:59:10.818Z,11.00
2022-10-25T20:02:32.569Z,11.00
2022-10-25T20:04:59.695Z,11.00
2022-10-25T20:07:26.665Z,11.00
2022-10-25T20:09:53.725Z,11.00
2022-10-25T20:12:21.000Z,11.00
2022-10-25T20:14:48.245Z,11.00
2022-10-25T20:17:15.547Z,11.00
2022-10-25T20:19:42.583Z,11.00
2022-10-25T20:22:09.541Z,11.00
2022-10-25T20:24:36.523Z,11.00
2022-10-25T20:27:03.484Z,11.00
2022-10-25T20:29:30.552Z,11.00
2022-10-25T20:31:57.558Z,11.00
2022-10-25T20:34:24.607Z,11.00
2022-10-25T20:37:06.197Z,11.00
2022-10-25T20:39:33.201Z,10.90
2022-10-25T20:42:00.497Z,10.90
2022-10-25T20:44:27.473Z,10.90
2022-10-25T20:46:54.807Z,10.90
2022-10-25T20:49:21.796Z,10.90
2022-10-25T20:51:48.776Z,10.80
2022-10-25T20:54:15.811Z,10.80
2022-10-25T20:56:42.783Z,10.80
2022-10-25T20:59:09.932Z,10.80
2022-10-25T21:01:37.414Z,10.80
2022-10-25T21:04:04.870Z,10.80
2022-10-25T21:06:31.866Z,10.70
2022-10-25T21:08:58.902Z,10.70
2022-10-25T21:11:29.064Z,10.70
2022-10-25T21:13:56.107Z,10.70
2022-10-25T21:16:23.351Z,10.60
2022-10-25T21:18:50.326Z,10.60
2022-10-25T21:21:19.525Z,10.60
2022-10-25T21:23:47.491Z,10.60
2022-10-25T21:26:14.768Z,10.60
2022-10-25T21:28:42.005Z,10.60
2022-10-25T21:31:11.799Z,10.60
2022-10-25T21:33:38.857Z,10.60
2022-10-25T21:36:15.389Z,8.90
2022-10-25T21:38:42.950Z,10.60
2022-10-25T21:41:20.629Z,10.60
2022-10-25T21:43:49.953Z,10.60
2022-10-25T21:46:18.471Z,10.60
2022-10-25T21:48:50.732Z,10.60
2022-10-25T21:51:19.336Z,10.60
2022-10-25T21:53:47.209Z,10.50
2022-10-25T21:56:16.518Z,10.50
2022-10-25T21:58:45.150Z,10.50
2022-10-25T22:01:14.991Z,10.50
2022-10-25T22:03:42.448Z,10.50
2022-10-25T22:06:11.350Z,10.50
2022-10-25T22:08:38.882Z,10.60
2022-10-25T22:11:10.992Z,10.60
2022-10-25T22:13:38.014Z,10.60
2022-10-25T22:16:06.425Z,10.50
2022-10-25T22:18:33.888Z,10.60
2022-10-25T22:21:04.443Z,10.50
2022-10-25T22:23:32.376Z,10.60
2022-10-25T22:26:02.376Z,10.60
2022-10-25T22:28:30.478Z,10.60
2022-10-25T22:31:02.557Z,10.60
2022-10-25T22:33:30.178Z,10.60
2022-10-25T22:36:05.973Z,10.60
2022-10-25T22:38:33.388Z,10.50
2022-10-25T22:41:02.280Z,10.50
2022-10-25T22:43:30.042Z,10.50
2022-10-25T22:45:59.922Z,10.50
2022-10-25T22:48:30.993Z,10.60
2022-10-25T22:50:58.058Z,10.50
2022-10-25T22:53:25.345Z,10.60
2022-10-25T22:55:58.127Z,10.50
2022-10-25T22:58:26.696Z,10.50
2022-10-25T23:01:09.226Z,10.60
2022-10-25T23:03:38.501Z,10.60
2022-10-25T23:06:07.726Z,10.60
2022-10-25T23:08:34.686Z,10.60
2022-10-25T23:11:04.632Z,10.60
2022-10-25T23:13:33.614Z,10.60
2022-10-25T23:16:01.284Z,10.70
2022-10-25T23:18:28.317Z,10.60
2022-10-25T23:20:57.494Z,10.60
2022-10-25T23:23:25.549Z,10.60
2022-10-25T23:25:53.058Z,10.60
2022-10-25T23:28:20.560Z,10.60
2022-10-25T23:30:47.564Z,10.60
2022-10-25T23:33:15.699Z,10.60
2022-10-25T23:35:42.870Z,10.60
2022-10-25T23:38:13.980Z,10.60
2022-10-25T23:40:45.671Z,10.70
2022-10-25T23:43:12.616Z,10.70
2022-10-25T23:45:41.758Z,10.70
2022-10-25T23:48:08.851Z,10.70
2022-10-25T23:50:35.834Z,10.70
2022-10-25T23:53:02.881Z,10.70
2022-10-25T23:55:29.867Z,10.70
2022-10-25T23:57:57.902Z,10.70
